Time;durP1;ratioP1;P1;durP2;ratioP2;P2;SDS_P1;SDS_P2;PMS_P1;PMS_P2;Temp;Humidity;BMP_temperature;BMP_pressure;BME280_temperature;BME280_humidity;BME280_pressure;Samples;Min_cycle;Max_cycle;Signal;HPM_P1;HPM_P2
2022/05/30 00:00:18;;;;;;;6.75;4.60;;;5.60;99.90;;;;;;5092274;28;20052;-84
2022/05/30 00:02:44;;;;;;;9.95;4.30;;;5.60;99.90;;;;;;5091167;28;20382;-84
2022/05/30 00:05:11;;;;;;;9.25;4.72;;;5.70;99.90;;;;;;5074648;28;20036;-84
2022/05/30 00:07:37;;;;;;;6.38;4.70;;;5.70;99.90;;;;;;5091427;28;20024;-84
2022/05/30 00:10:06;;;;;;;7.38;3.72;;;5.60;99.90;;;;;;5090668;28;20036;-84
2022/05/30 00:12:32;;;;;;;6.90;4.03;;;5.50;99.90;;;;;;5091070;28;20028;-84
2022/05/30 00:14:58;;;;;;;6.00;4.13;;;5.50;99.90;;;;;;5091033;28;20039;-84
2022/05/30 00:17:24;;;;;;;5.85;3.85;;;5.50;99.90;;;;;;5090309;28;20024;-84
2022/05/30 00:19:49;;;;;;;6.38;4.20;;;5.50;99.90;;;;;;5074363;28;20080;-84
2022/05/30 00:22:15;;;;;;;5.28;4.18;;;5.60;99.90;;;;;;5074507;28;20468;-84
2022/05/30 00:24:43;;;;;;;6.07;4.35;;;5.60;99.90;;;;;;5074234;28;20052;-84
2022/05/30 00:27:09;;;;;;;9.18;4.40;;;5.50;99.90;;;;;;5074133;28;20052;-83
2022/05/30 00:29:36;;;;;;;6.72;4.35;;;5.60;99.90;;;;;;5073880;28;20031;-84
2022/05/30 00:32:02;;;;;;;12.10;4.68;;;5.60;99.90;;;;;;5074383;28;20088;-83
2022/05/30 00:34:28;;;;;;;8.88;4.53;;;5.60;99.90;;;;;;5091265;28;20028;-84
2022/05/30 00:36:55;;;;;;;6.88;5.13;;;5.60;99.90;;;;;;5091277;28;20161;-83
2022/05/30 00:39:21;;;;;;;8.68;4.68;;;5.60;99.90;;;;;;5091255;28;20134;-84
2022/05/30 00:41:46;;;;;;;6.95;4.18;;;5.50;99.90;;;;;;5074054;28;20063;-84
2022/05/30 00:44:13;;;;;;;8.30;5.20;;;5.50;99.90;;;;;;5074419;28;20020;-84
2022/05/30 00:46:38;;;;;;;5.50;4.32;;;5.50;99.90;;;;;;5090972;28;20028;-83
2022/05/30 00:49:08;;;;;;;7.32;4.72;;;5.50;99.90;;;;;;5090902;28;20043;-84
2022/05/30 00:51:43;;;;;;;7.65;4.55;;;5.50;99.90;;;;;;5074452;28;20029;-84
2022/05/30 00:54:12;;;;;;;6.75;4.97;;;5.40;99.90;;;;;;5073448;28;20044;-84
2022/05/30 00:56:43;;;;;;;5.78;4.57;;;5.30;99.90;;;;;;5073795;28;20109;-83
2022/05/30 00:59:10;;;;;;;7.57;4.75;;;5.20;99.90;;;;;;5091809;28;20032;-84
2022/05/30 01:01:36;;;;;;;6.70;4.90;;;5.10;99.90;;;;;;5090481;28;20040;-83
2022/05/30 01:06:52;;;;;;;8.57;5.75;;;5.00;99.90;;;;;;5091961;28;20051;-84
2022/05/30 01:09:22;;;;;;;7.40;5.13;;;4.90;99.90;;;;;;5094005;28;20032;-84
2022/05/30 01:11:56;;;;;;;8.23;4.93;;;4.90;99.90;;;;;;5077844;28;20035;-84
2022/05/30 01:14:23;;;;;;;10.27;5.35;;;5.00;99.90;;;;;;5094652;28;20062;-84
2022/05/30 01:16:50;;;;;;;7.15;5.43;;;4.90;99.90;;;;;;5077712;28;20035;-83
2022/05/30 01:19:48;;;;;;;8.23;5.68;;;4.90;99.90;;;;;;5077694;28;20028;-84
2022/05/30 01:22:22;;;;;;;9.10;5.47;;;4.90;99.90;;;;;;5069992;28;20063;-84
2022/05/30 01:25:05;;;;;;;8.48;5.53;;;4.90;99.90;;;;;;5094198;28;20566;-84
2022/05/30 01:27:49;;;;;;;6.35;4.70;;;4.80;99.90;;;;;;5094540;28;20127;-84
2022/05/30 01:30:16;;;;;;;7.20;5.38;;;4.70;99.90;;;;;;5093427;28;20028;-84
2022/05/30 01:32:43;;;;;;;9.05;5.47;;;4.70;99.90;;;;;;5094151;28;20020;-84
2022/05/30 01:35:10;;;;;;;8.73;5.60;;;4.70;99.90;;;;;;5077165;28;20133;-84
2022/05/30 01:37:39;;;;;;;9.85;5.85;;;4.70;99.90;;;;;;5078032;28;20395;-84
2022/05/30 01:40:06;;;;;;;11.32;5.88;;;4.70;99.90;;;;;;5077154;28;20034;-84
2022/05/30 01:42:33;;;;;;;13.30;5.25;;;4.70;99.90;;;;;;5077525;28;20034;-84
2022/05/30 01:44:59;;;;;;;7.47;5.72;;;4.70;99.90;;;;;;5094332;28;20028;-84
2022/05/30 01:47:25;;;;;;;13.25;6.75;;;4.80;99.90;;;;;;5076453;28;20090;-84
2022/05/30 01:49:52;;;;;;;8.93;5.45;;;4.70;99.90;;;;;;5077228;28;20081;-83
2022/05/30 01:52:23;;;;;;;9.93;5.68;;;4.70;99.90;;;;;;5094046;28;20107;-84
2022/05/30 01:54:50;;;;;;;10.38;6.30;;;4.70;99.90;;;;;;5093631;28;20483;-83
2022/05/30 01:57:41;;;;;;;10.35;6.18;;;4.70;99.90;;;;;;5094172;28;20024;-83
2022/05/30 02:00:25;;;;;;;9.48;6.05;;;4.70;99.90;;;;;;5094167;28;20035;-84
2022/05/30 02:02:52;;;;;;;11.70;6.10;;;4.60;99.90;;;;;;5077284;28;20032;-84
2022/05/30 02:05:19;;;;;;;9.43;5.88;;;4.70;99.90;;;;;;5076834;28;20042;-84
2022/05/30 02:07:45;;;;;;;13.30;6.10;;;4.60;99.90;;;;;;5075955;28;20028;-83
2022/05/30 02:10:15;;;;;;;10.00;6.27;;;4.60;99.90;;;;;;5077345;28;20399;-83
2022/05/30 02:12:41;;;;;;;9.02;5.70;;;4.50;99.90;;;;;;5076724;28;20058;-84
2022/05/30 02:15:19;;;;;;;11.52;6.30;;;4.50;99.90;;;;;;5078679;28;20031;-85
2022/05/30 02:17:49;;;;;;;10.88;6.00;;;4.50;99.90;;;;;;5077207;28;20028;-84
2022/05/30 02:20:16;;;;;;;8.25;6.03;;;4.40;99.90;;;;;;5075375;28;20832;-84
2022/05/30 02:22:43;;;;;;;17.52;6.72;;;4.30;99.90;;;;;;5076233;28;20036;-84
2022/05/30 02:25:10;;;;;;;10.55;6.82;;;4.30;99.90;;;;;;5076295;28;20123;-84
2022/05/30 02:27:36;;;;;;;13.50;6.80;;;4.40;99.90;;;;;;5076328;28;20066;-84
2022/05/30 02:30:02;;;;;;;9.82;6.22;;;4.40;99.90;;;;;;5076140;28;20058;-84
2022/05/30 02:32:29;;;;;;;13.60;7.10;;;4.30;99.90;;;;;;5076615;28;20032;-83
2022/05/30 02:37:40;;;;;;;14.95;7.55;;;4.40;99.90;;;;;;5092995;28;20066;-84
2022/05/30 02:40:25;;;;;;;12.38;7.80;;;4.40;99.90;;;;;;5092963;28;20119;-83
2022/05/30 02:43:09;;;;;;;12.45;7.30;;;4.40;99.90;;;;;;5092883;28;20155;-83
2022/05/30 02:45:40;;;;;;;11.10;7.20;;;4.40;99.90;;;;;;5093062;28;20031;-83
2022/05/30 02:48:07;;;;;;;13.07;6.55;;;4.40;99.90;;;;;;5092778;28;20066;-84
2022/05/30 02:50:32;;;;;;;15.18;6.85;;;4.50;99.90;;;;;;5075948;28;20044;-84
2022/05/30 02:52:59;;;;;;;9.57;6.22;;;4.50;99.90;;;;;;5076368;28;20031;-84
2022/05/30 02:55:45;;;;;;;9.80;6.72;;;4.50;99.90;;;;;;5092990;28;20402;-84
2022/05/30 02:58:12;;;;;;;15.48;6.57;;;4.50;99.90;;;;;;5092557;28;20032;-84
2022/05/30 03:00:38;;;;;;;11.48;5.88;;;4.40;99.90;;;;;;5075740;28;20368;-84
2022/05/30 03:03:05;;;;;;;12.65;6.60;;;4.30;99.90;;;;;;5075960;28;20063;-84
2022/05/30 03:05:30;;;;;;;11.50;6.40;;;4.30;99.90;;;;;;5092776;28;20487;-84
2022/05/30 03:07:59;;;;;;;9.55;6.63;;;4.30;99.90;;;;;;5075981;28;20039;-84
2022/05/30 03:11:03;;;;;;;11.25;6.25;;;4.20;99.90;;;;;;5059561;28;20063;-84
2022/05/30 03:13:29;;;;;;;9.77;6.05;;;4.20;99.90;;;;;;5070817;28;20056;-84
2022/05/30 03:15:55;;;;;;;12.65;6.40;;;4.20;99.90;;;;;;5069938;28;20066;-84
2022/05/30 03:18:21;;;;;;;12.98;7.20;;;4.20;99.90;;;;;;5074941;28;20031;-84
2022/05/30 03:20:47;;;;;;;9.55;6.00;;;4.20;99.90;;;;;;5074702;28;20043;-84
2022/05/30 03:23:13;;;;;;;10.73;5.95;;;4.20;99.90;;;;;;5074838;28;20039;-83
2022/05/30 03:25:59;;;;;;;10.20;5.30;;;4.20;99.90;;;;;;5088666;28;20065;-84
2022/05/30 03:28:31;;;;;;;7.03;5.13;;;4.10;99.90;;;;;;5091729;28;20036;-83
2022/05/30 03:30:59;;;;;;;8.30;4.78;;;4.10;99.90;;;;;;5074246;28;20024;-82
2022/05/30 03:33:25;;;;;;;8.88;5.10;;;4.10;99.90;;;;;;5093339;28;20024;-82
2022/05/30 03:35:52;;;;;;;8.70;4.82;;;4.00;99.90;;;;;;5091808;28;20020;-82
2022/05/30 03:38:36;;;;;;;9.38;5.28;;;4.10;99.90;;;;;;5077606;28;20028;-82
2022/05/30 03:41:33;;;;;;;10.02;5.05;;;4.20;99.90;;;;;;5092105;28;20396;-82
2022/05/30 03:44:06;;;;;;;8.38;4.70;;;4.20;99.90;;;;;;5075940;28;20126;-82
2022/05/30 03:46:32;;;;;;;10.25;4.80;;;4.30;99.90;;;;;;5074143;28;20732;-82
2022/05/30 03:49:00;;;;;;;6.72;5.30;;;4.30;99.90;;;;;;5091013;28;20031;-82
2022/05/30 03:51:26;;;;;;;7.78;5.15;;;4.30;99.90;;;;;;5091311;28;20028;-82
2022/05/30 03:53:52;;;;;;;9.63;6.07;;;4.30;99.90;;;;;;5091286;28;20425;-82
2022/05/30 03:56:20;;;;;;;9.40;5.10;;;4.30;99.90;;;;;;5074357;28;20110;-82
2022/05/30 03:58:45;;;;;;;7.93;4.90;;;4.30;99.90;;;;;;5074119;28;20067;-82
2022/05/30 04:01:12;;;;;;;8.82;4.60;;;4.30;99.90;;;;;;5074670;28;20028;-82
2022/05/30 04:03:39;;;;;;;10.73;5.55;;;4.30;99.90;;;;;;5074399;28;20525;-82
2022/05/30 04:06:08;;;;;;;7.45;4.93;;;4.40;99.90;;;;;;5074789;28;20031;-82
2022/05/30 04:08:35;;;;;;;9.30;4.97;;;4.40;99.90;;;;;;5074221;28;20034;-82
2022/05/30 04:11:15;;;;;;;;;;;4.50;99.90;;;;;;5092094;28;20020;-82
2022/05/30 04:14:02;;;;;;;8.48;5.50;;;4.50;99.90;;;;;;5060600;28;19919;-81
2022/05/30 04:16:34;;;;;;;9.20;4.75;;;4.50;99.90;;;;;;5091632;28;20048;-82
2022/05/30 04:19:04;;;;;;;9.38;4.90;;;4.50;99.90;;;;;;5091341;28;20060;-82
2022/05/30 04:21:30;;;;;;;7.65;4.80;;;4.60;99.90;;;;;;5091456;28;20070;-82
2022/05/30 04:23:56;;;;;;;9.85;5.63;;;4.60;99.90;;;;;;5091519;28;20020;-82
2022/05/30 04:26:23;;;;;;;11.85;4.60;;;4.70;99.90;;;;;;5074405;28;20388;-81
2022/05/30 04:28:52;;;;;;;7.32;4.82;;;4.80;99.90;;;;;;5074149;28;20035;-82
2022/05/30 04:31:37;;;;;;;11.13;5.07;;;4.90;99.90;;;;;;5090977;28;20081;-82
2022/05/30 04:34:03;;;;;;;7.22;4.28;;;5.00;99.90;;;;;;5073678;28;20471;-82
2022/05/30 04:36:29;;;;;;;8.32;4.25;;;5.10;99.90;;;;;;5090571;28;20028;-82
2022/05/30 04:38:56;;;;;;;11.65;5.07;;;5.20;99.90;;;;;;5073092;28;20020;-82
2022/05/30 04:41:40;;;;;;;9.00;4.70;;;5.20;99.90;;;;;;5086953;28;20541;-82
2022/05/30 04:44:24;;;;;;;6.00;3.67;;;5.40;99.90;;;;;;5092271;28;20032;-82
2022/05/30 04:47:11;;;;;;;10.85;5.07;;;5.50;99.90;;;;;;5095695;28;20051;-82
2022/05/30 04:49:40;;;;;;;8.95;5.00;;;5.60;99.90;;;;;;5095044;28;20024;-82
2022/05/30 04:52:08;;;;;;;9.70;5.13;;;5.70;99.90;;;;;;5078533;28;20050;-82
2022/05/30 04:54:34;;;;;;;10.75;4.50;;;5.70;99.90;;;;;;5077687;28;20427;-83
2022/05/30 04:57:26;;;;;;;8.00;4.28;;;5.90;99.90;;;;;;5084760;28;20024;-82
2022/05/30 05:00:14;;;;;;;5.60;3.85;;;6.00;99.90;;;;;;5080206;28;20078;-82
2022/05/30 05:02:44;;;;;;;12.63;4.50;;;6.20;99.90;;;;;;5078124;28;20024;-82
2022/05/30 05:05:11;;;;;;;8.45;4.10;;;6.20;99.90;;;;;;5077881;28;20035;-82
2022/05/30 05:08:04;;;;;;;8.52;4.38;;;6.30;99.90;;;;;;5077649;28;20024;-83
2022/05/30 05:10:52;;;;;;;4.22;2.97;;;6.40;99.90;;;;;;5078125;28;20032;-82
2022/05/30 05:13:30;;;;;;;4.63;3.50;;;6.50;99.90;;;;;;5079179;28;20028;-83
2022/05/30 05:16:23;;;;;;;4.63;3.25;;;6.60;99.90;;;;;;5092296;28;20114;-82
2022/05/30 05:18:49;;;;;;;5.25;3.45;;;6.60;99.90;;;;;;5077177;28;20119;-83
2022/05/30 05:21:30;;;;;;;4.63;3.40;;;6.70;99.90;;;;;;5077335;28;20549;-82
2022/05/30 05:23:57;;;;;;;3.75;2.95;;;6.80;99.90;;;;;;5077015;28;20032;-83
2022/05/30 05:26:46;;;;;;;7.40;3.28;;;6.90;99.90;;;;;;5079430;28;20036;-83
2022/05/30 05:29:20;;;;;;;8.00;3.28;;;7.10;99.90;;;;;;5078011;28;20047;-82
2022/05/30 05:32:09;;;;;;;4.80;3.35;;;7.20;99.90;;;;;;5077201;28;20028;-83
2022/05/30 05:34:34;;;;;;;6.72;3.03;;;7.30;99.90;;;;;;5076322;28;20494;-82
2022/05/30 05:37:01;;;;;;;6.45;2.47;;;7.30;99.90;;;;;;5090403;28;20024;-82
2022/05/30 05:39:30;;;;;;;7.15;2.13;;;7.50;99.90;;;;;;5077460;28;20028;-82
2022/05/30 05:41:59;;;;;;;5.15;2.63;;;7.60;99.90;;;;;;5089569;28;20111;-82
2022/05/30 05:44:25;;;;;;;3.67;2.38;;;7.70;99.90;;;;;;5076901;28;20047;-82
2022/05/30 05:46:55;;;;;;;4.38;2.75;;;7.80;99.90;;;;;;5076840;28;20032;-82
2022/05/30 05:49:21;;;;;;;4.10;2.47;;;7.90;99.90;;;;;;5076943;28;20040;-83
2022/05/30 05:51:54;;;;;;;5.60;2.45;;;8.00;99.90;;;;;;5076473;28;20028;-83
2022/05/30 05:54:22;;;;;;;3.55;2.03;;;8.10;99.90;;;;;;5075993;28;20032;-83
2022/05/30 05:56:49;;;;;;;4.60;2.40;;;8.10;99.90;;;;;;5076844;28;20024;-83
2022/05/30 05:59:22;;;;;;;8.30;2.00;;;8.20;99.90;;;;;;5077465;28;20666;-83
2022/05/30 06:01:48;;;;;;;6.00;1.73;;;8.30;99.90;;;;;;5076790;28;20035;-83
2022/05/30 06:04:14;;;;;;;4.72;1.75;;;8.40;99.90;;;;;;5076904;28;20035;-83
2022/05/30 06:06:43;;;;;;;4.35;1.90;;;8.40;99.90;;;;;;5093888;28;20036;-82
2022/05/30 06:09:10;;;;;;;6.65;1.98;;;8.40;99.90;;;;;;5092620;28;20034;-83
2022/05/30 06:11:45;;;;;;;6.13;1.67;;;8.60;99.90;;;;;;5092820;28;20069;-83
2022/05/30 06:14:10;;;;;;;2.85;1.40;;;8.60;99.90;;;;;;5076455;28;20036;-83
2022/05/30 06:16:40;;;;;;;2.72;1.80;;;8.60;99.90;;;;;;5093081;28;20032;-83
2022/05/30 06:19:08;;;;;;;4.38;2.00;;;8.70;99.90;;;;;;5076581;28;20020;-83
2022/05/30 06:21:34;;;;;;;5.93;2.38;;;8.80;99.90;;;;;;5093481;28;20035;-83
2022/05/30 06:24:00;;;;;;;3.22;1.80;;;9.00;99.90;;;;;;5076313;28;20127;-83
2022/05/30 06:26:44;;;;;;;2.75;1.55;;;9.10;99.90;;;;;;5093279;28;20058;-82
2022/05/30 06:29:16;;;;;;;4.88;2.17;;;9.20;99.90;;;;;;5072347;28;20028;-83
2022/05/30 06:31:43;;;;;;;2.50;1.90;;;9.40;99.90;;;;;;5076111;28;20032;-83
2022/05/30 06:34:09;;;;;;;2.70;1.80;;;9.50;99.90;;;;;;5092590;28;20031;-83
2022/05/30 06:36:40;;;;;;;1.75;1.55;;;9.60;99.90;;;;;;5076336;28;20051;-83
2022/05/30 06:39:07;;;;;;;2.80;1.83;;;9.70;99.90;;;;;;5075987;28;20028;-83
2022/05/30 06:41:42;;;;;;;2.58;1.85;;;9.70;99.90;;;;;;5072880;28;20043;-83
2022/05/30 06:44:09;;;;;;;4.90;1.73;;;9.80;99.90;;;;;;5075796;28;20040;-84
2022/05/30 06:47:07;;;;;;;2.53;1.50;;;9.90;99.90;;;;;;5061160;28;20098;-83
2022/05/30 06:49:51;;;;;;;4.35;2.10;;;10.00;99.90;;;;;;5093406;28;20124;-83
2022/05/30 06:52:23;;;;;;;1.98;1.73;;;10.10;99.90;;;;;;5076831;28;20028;-83
2022/05/30 06:54:48;;;;;;;5.00;2.05;;;10.20;99.90;;;;;;5092488;28;20036;-83
2022/05/30 06:59:59;;;;;;;4.53;1.92;;;10.40;99.90;;;;;;5092472;28;20029;-83
2022/05/30 07:02:27;;;;;;;2.63;1.45;;;10.40;99.90;;;;;;5075518;28;20030;-83
2022/05/30 07:05:11;;;;;;;2.08;1.52;;;10.30;99.90;;;;;;5092958;28;20077;-83
2022/05/30 07:07:56;;;;;;;2.45;1.73;;;10.40;99.90;;;;;;5093065;28;20075;-83
2022/05/30 07:10:39;;;;;;;2.05;1.40;;;10.30;99.90;;;;;;5091981;28;20039;-82
2022/05/30 07:13:26;;;;;;;3.65;1.92;;;10.40;99.90;;;;;;5092873;28;20595;-83
2022/05/30 07:15:52;;;;;;;3.90;1.90;;;10.50;99.90;;;;;;5092291;28;20024;-83
2022/05/30 07:18:27;;;;;;;5.03;1.85;;;10.60;99.90;;;;;;5092186;28;20063;-83
2022/05/30 07:20:58;;;;;;;3.08;2.10;;;10.70;99.90;;;;;;5075341;28;20480;-84
2022/05/30 07:23:27;;;;;;;3.42;1.50;;;10.80;99.90;;;;;;5092715;28;20052;-84
2022/05/30 07:26:25;;;;;;;6.40;1.60;;;11.40;99.90;;;;;;5069602;28;20028;-83
2022/05/30 07:29:10;;;;;;;9.88;1.80;;;12.90;99.90;;;;;;5091121;28;20440;-83
2022/05/30 07:31:59;;;;;;;1.85;1.50;;;13.90;99.90;;;;;;5092016;28;20181;-82
2022/05/30 07:34:43;;;;;;;3.55;1.88;;;13.10;99.90;;;;;;5091404;28;20395;-83
2022/05/30 07:37:44;;;;;;;2.05;1.80;;;12.80;99.90;;;;;;5092909;28;20032;-84
2022/05/30 07:40:26;;;;;;;5.05;2.00;;;12.40;99.90;;;;;;5091488;28;20123;-83
2022/05/30 07:43:00;;;;;;;4.45;1.75;;;12.10;99.90;;;;;;5086689;28;20024;-83
2022/05/30 07:45:32;;;;;;;3.17;2.00;;;12.00;99.90;;;;;;5091049;28;20035;-83
2022/05/30 07:48:15;;;;;;;2.63;1.80;;;12.30;99.90;;;;;;5091127;28;20036;-83
2022/05/30 07:50:41;;;;;;;3.15;1.70;;;12.60;99.90;;;;;;5091309;28;20123;-84
2022/05/30 07:53:21;;;;;;;2.95;1.40;;;13.20;99.90;;;;;;5076654;28;20020;-83
2022/05/30 07:55:58;;;;;;;2.72;1.40;;;15.00;99.90;;;;;;5075856;28;20039;-83
2022/05/30 07:58:25;;;;;;;2.85;1.40;;;16.60;99.90;;;;;;5074510;28;20032;-83
2022/05/30 08:00:52;;;;;;;3.97;1.65;;;17.20;99.90;;;;;;5074463;28;20097;-83
2022/05/30 08:03:24;;;;;;;4.65;2.92;;;18.20;99.90;;;;;;5075122;28;20497;-83
2022/05/30 08:06:23;;;;;;;2.75;1.45;;;18.70;99.90;;;;;;5076171;28;20032;-84
2022/05/30 08:09:07;;;;;;;5.38;1.67;;;19.30;99.90;;;;;;5091425;28;20050;-83
2022/05/30 08:11:40;;;;;;;3.25;1.50;;;20.50;97.10;;;;;;5075630;28;20043;-83
2022/05/30 08:14:16;;;;;;;3.80;1.50;;;19.60;96.40;;;;;;5091420;28;20097;-83
2022/05/30 08:16:42;;;;;;;3.42;1.70;;;18.90;96.20;;;;;;5090604;28;20041;-84
2022/05/30 08:19:09;;;;;;;3.58;1.70;;;19.90;96.30;;;;;;5074258;28;20035;-84
2022/05/30 08:21:35;;;;;;;2.78;1.88;;;19.60;94.70;;;;;;5074443;28;20062;-84
2022/05/30 08:24:01;;;;;;;3.88;1.65;;;19.00;94.70;;;;;;5074395;28;20021;-83
2022/05/30 08:26:26;;;;;;;2.95;1.70;;;17.90;95.30;;;;;;5074423;28;20051;-84
2022/05/30 08:29:13;;;;;;;3.17;1.63;;;18.40;96.10;;;;;;5090461;28;20115;-84
2022/05/30 08:31:40;;;;;;;3.75;1.85;;;18.20;96.00;;;;;;5074458;28;20122;-83
2022/05/30 08:34:34;;;;;;;1.77;1.60;;;18.00;95.90;;;;;;5090534;28;20028;-83
2022/05/30 08:37:01;;;;;;;2.88;1.63;;;17.30;96.20;;;;;;5073886;28;20031;-83
2022/05/30 08:42:12;;;;;;;3.33;1.90;;;16.00;99.30;;;;;;5090767;28;20514;-83
2022/05/30 08:44:59;;;;;;;3.05;2.08;;;15.20;99.90;;;;;;5084540;28;20036;-83
2022/05/30 08:47:44;;;;;;;;;;;14.80;99.90;;;;;;5078273;28;20090;-92
2022/05/30 08:50:26;;;;;;;2.47;1.75;;;14.60;99.90;;;;;;5076973;28;19908;-92
2022/05/30 08:53:19;;;;;;;3.45;2.00;;;14.00;99.90;;;;;;5075688;28;20032;-91
2022/05/30 08:55:55;;;;;;;5.03;2.55;;;14.10;99.90;;;;;;5076872;28;20115;-92
2022/05/30 08:58:50;;;;;;;4.55;2.33;;;14.20;99.90;;;;;;5091619;28;20032;-93
2022/05/30 09:01:38;;;;;;;2.60;1.98;;;14.10;99.90;;;;;;5095295;28;20023;-93
2022/05/30 09:04:51;;;;;;;2.75;1.60;;;14.00;99.90;;;;;;5083206;28;20395;-93
2022/05/30 09:07:25;;;;;;;5.70;1.98;;;14.10;99.90;;;;;;5076968;28;20061;-93
2022/05/30 09:10:04;;;;;;;2.63;2.10;;;13.80;99.90;;;;;;5077501;28;20032;-92
2022/05/30 09:13:00;;;;;;;2.92;1.88;;;13.80;99.90;;;;;;5094639;28;20031;-92
2022/05/30 09:16:19;;;;;;;2.45;1.67;;;14.10;99.90;;;;;;5096032;28;20105;-92
2022/05/30 09:18:50;;;;;;;3.25;2.10;;;14.20;99.90;;;;;;5077129;28;20027;-93
2022/05/30 09:21:18;;;;;;;5.82;1.98;;;14.40;99.90;;;;;;5076787;28;20055;-92
2022/05/30 09:23:46;;;;;;;2.58;1.52;;;14.80;99.90;;;;;;5076742;28;20040;-93
2022/05/30 09:26:22;;;;;;;3.63;1.90;;;14.90;99.90;;;;;;5076659;28;20059;-92
2022/05/30 09:29:02;;;;;;;4.18;2.50;;;15.00;99.90;;;;;;5079622;28;20082;-92
2022/05/30 09:31:43;;;;;;;4.05;2.00;;;14.90;99.90;;;;;;5098003;28;20040;-92
2022/05/30 09:34:45;;;;;;;2.97;1.83;;;14.90;99.90;;;;;;5098467;28;20032;-93
2022/05/30 09:37:33;;;;;;;3.20;2.20;;;14.80;99.90;;;;;;5098032;28;20062;-92
2022/05/30 09:40:38;;;;;;;2.67;2.13;;;14.90;99.90;;;;;;5075019;28;20024;-93
2022/05/30 09:43:53;;;;;;;4.13;1.95;;;14.60;99.90;;;;;;5088511;28;20387;-92
2022/05/30 09:46:19;;;;;;;2.40;1.90;;;14.70;99.90;;;;;;5078797;28;20031;-91
2022/05/30 09:49:27;;;;;;;3.70;1.90;;;14.80;99.90;;;;;;5095876;28;20028;-90
2022/05/30 09:52:01;;;;;;;6.88;1.90;;;15.00;99.90;;;;;;5079543;28;20028;-91
2022/05/30 09:54:46;;;;;;;1.88;1.52;;;15.00;99.90;;;;;;5079186;28;20031;-92
2022/05/30 09:57:21;;;;;;;3.35;1.90;;;15.00;99.90;;;;;;5080638;28;20042;-91
2022/05/30 10:00:10;;;;;;;3.00;1.70;;;15.40;99.90;;;;;;5080030;28;20028;-92
2022/05/30 10:02:45;;;;;;;4.45;2.33;;;15.90;99.90;;;;;;5097181;28;20495;-92
2022/05/30 10:05:20;;;;;;;2.28;1.55;;;16.40;99.90;;;;;;5079306;28;20024;-92
2022/05/30 10:07:55;;;;;;;4.25;2.00;;;16.60;99.90;;;;;;5079442;28;20113;-91
2022/05/30 10:10:46;;;;;;;3.33;1.75;;;16.80;99.90;;;;;;5096916;28;20050;-92
2022/05/30 10:13:13;;;;;;;2.45;1.63;;;16.70;99.90;;;;;;5079593;28;20475;-92
2022/05/30 10:16:14;;;;;;;2.22;1.55;;;16.70;99.90;;;;;;5096827;28;20032;-93
2022/05/30 10:18:54;;;;;;;3.42;1.50;;;17.00;99.90;;;;;;5079623;28;20035;-93
2022/05/30 10:21:38;;;;;;;1.70;1.60;;;17.00;99.90;;;;;;5079626;28;20161;-93
2022/05/30 10:28:30;;;;;;;2.22;1.70;;;18.40;99.90;;;;;;5043208;28;20127;-92
2022/05/30 10:31:39;;;;;;;3.10;1.80;;;19.10;98.60;;;;;;5097717;28;20173;-94
2022/05/30 10:34:19;;;;;;;4.40;1.50;;;19.30;96.60;;;;;;5079793;28;20024;-93
2022/05/30 10:37:00;;;;;;;2.97;1.55;;;19.60;95.30;;;;;;5078916;28;20115;-93
2022/05/30 10:39:33;;;;;;;;;;;19.30;94.60;;;;;;5079425;28;20035;-93
2022/05/30 10:42:03;;;;;;;;;;;18.90;95.70;;;;;;5078925;28;19954;-92
2022/05/30 10:44:44;;;;;;;3.45;1.90;;;18.90;94.90;;;;;;5095825;28;19958;-92
2022/05/30 10:47:19;;;;;;;4.28;2.05;;;18.60;95.30;;;;;;5096812;28;20036;-94
2022/05/30 10:50:00;;;;;;;3.30;1.50;;;18.10;95.90;;;;;;5079664;28;20902;-92
2022/05/30 10:52:49;;;;;;;2.22;1.63;;;16.80;97.20;;;;;;5077516;28;20075;-93
2022/05/30 10:55:25;;;;;;;2.08;1.33;;;16.00;99.90;;;;;;5076314;28;20028;-93
2022/05/30 10:57:59;;;;;;;3.33;1.63;;;15.30;99.90;;;;;;5078067;28;20024;-93
2022/05/30 11:00:58;;;;;;;2.50;1.70;;;15.00;99.90;;;;;;5078637;28;20028;-92
2022/05/30 11:03:43;;;;;;;2.00;1.58;;;14.60;99.90;;;;;;5080599;28;20125;-92
2022/05/30 11:06:27;;;;;;;3.75;1.60;;;14.60;99.90;;;;;;5078088;28;20024;-93
2022/05/30 11:09:18;;;;;;;3.85;1.70;;;15.00;99.90;;;;;;5078324;28;20058;-93
2022/05/30 11:12:20;;;;;;;2.05;1.60;;;15.00;99.90;;;;;;5075469;28;20510;-92
2022/05/30 11:15:04;;;;;;;1.85;1.60;;;14.90;99.90;;;;;;5064665;28;20078;-92
2022/05/30 11:18:20;;;;;;;2.58;1.58;;;15.40;99.90;;;;;;5096074;28;20637;-92
2022/05/30 11:21:42;;;;;;;3.05;1.52;;;15.70;99.90;;;;;;5096065;28;20032;-93
2022/05/30 11:24:09;;;;;;;2.53;1.30;;;16.30;99.90;;;;;;5078716;28;20063;-93
2022/05/30 11:26:53;;;;;;;2.50;1.60;;;18.00;99.80;;;;;;5078129;28;20028;-92
2022/05/30 11:29:25;;;;;;;1.30;1.20;;;19.50;96.50;;;;;;5094745;28;20462;-93
2022/05/30 11:32:03;;;;;;;4.28;1.75;;;19.30;95.60;;;;;;5095104;28;20032;-92
2022/05/30 11:34:48;;;;;;;1.77;1.00;;;18.90;95.20;;;;;;5095380;28;20028;-94
2022/05/30 11:37:25;;;;;;;3.63;1.23;;;19.70;95.00;;;;;;5077545;28;20129;-93
2022/05/30 11:40:03;;;;;;;2.08;1.40;;;20.40;94.50;;;;;;5077180;28;20492;-94
2022/05/30 11:42:56;;;;;;;4.18;2.80;;;20.40;92.80;;;;;;5094485;28;20035;-94
2022/05/30 11:45:40;;;;;;;3.40;1.80;;;19.50;92.00;;;;;;5077348;28;20081;-93
2022/05/30 11:48:45;;;;;;;2.53;1.70;;;18.90;94.20;;;;;;5094434;28;20078;-93
2022/05/30 11:51:34;;;;;;;3.67;1.10;;;19.40;94.10;;;;;;5049315;28;20153;-92
2022/05/30 11:54:35;;;;;;;1.58;1.30;;;19.60;94.10;;;;;;5094252;28;20771;-92
2022/05/30 11:57:25;;;;;;;2.85;1.73;;;18.90;93.80;;;;;;5094537;28;20028;-93
2022/05/30 12:00:02;;;;;;;2.70;1.95;;;18.60;95.30;;;;;;5077696;28;20058;-93
2022/05/30 12:02:57;;;;;;;3.78;1.23;;;18.70;95.50;;;;;;5093890;28;20032;-94
2022/05/30 12:05:31;;;;;;;1.60;1.10;;;18.70;94.50;;;;;;5043511;28;20040;-93
2022/05/30 12:08:20;;;;;;;4.13;1.58;;;18.80;94.20;;;;;;5077083;28;20035;-93
2022/05/30 12:10:56;;;;;;;4.68;1.40;;;18.30;92.90;;;;;;5065883;28;20036;-93
2022/05/30 12:13:37;;;;;;;3.03;1.50;;;18.40;96.30;;;;;;5094409;28;20035;-93
2022/05/30 12:16:11;;;;;;;1.92;1.33;;;19.20;95.10;;;;;;5079791;28;20031;-92
2022/05/30 12:24:37;;;;;;;4.57;1.33;;;20.70;89.20;;;;;;5093390;28;20126;-94
2022/05/30 12:27:29;;;;;;;1.95;1.23;;;20.60;90.00;;;;;;5094758;28;20031;-93
2022/05/30 12:29:55;;;;;;;2.38;1.35;;;20.10;89.80;;;;;;5094770;28;20031;-93
2022/05/30 12:32:21;;;;;;;2.45;1.67;;;19.90;89.70;;;;;;5077662;28;20105;-92
2022/05/30 12:35:18;;;;;;;1.52;1.15;;;19.40;89.00;;;;;;5096186;28;20029;-93
2022/05/30 12:38:09;;;;;;;3.20;1.30;;;19.50;90.10;;;;;;5077692;28;20024;-92
2022/05/30 12:40:42;;;;;;;4.53;1.35;;;18.90;90.40;;;;;;5093819;28;20035;-92
2022/05/30 12:43:10;;;;;;;4.53;1.40;;;18.10;92.70;;;;;;5078041;28;20051;-92
2022/05/30 12:45:46;;;;;;;2.83;1.95;;;17.50;93.20;;;;;;5078472;28;20028;-93
2022/05/30 12:48:36;;;;;;;3.65;1.70;;;16.90;93.90;;;;;;5097061;28;20031;-94
2022/05/30 12:51:14;;;;;;;1.50;1.30;;;16.40;94.70;;;;;;5076746;28;20032;-92
2022/05/30 12:53:55;;;;;;;2.72;1.48;;;16.20;95.70;;;;;;5077856;28;20463;-92
2022/05/30 12:56:43;;;;;;;6.90;1.50;;;16.90;96.00;;;;;;5093693;28;20123;-93
2022/05/30 12:59:21;;;;;;;2.72;1.40;;;18.30;93.90;;;;;;5076440;28;20654;-93
2022/05/30 13:01:48;;;;;;;1.50;1.30;;;20.30;91.50;;;;;;5078580;28;20038;-91
2022/05/30 13:04:21;;;;;;;4.00;1.60;;;22.30;85.90;;;;;;5081656;28;20059;-93
2022/05/30 13:07:01;;;;;;;1.83;1.27;;;22.40;81.20;;;;;;5081909;28;20036;-94
2022/05/30 13:09:37;;;;;;;2.07;1.70;;;22.00;79.30;;;;;;5097412;28;20115;-93
2022/05/30 13:12:14;;;;;;;1.50;1.40;;;20.70;83.20;;;;;;5099201;28;20024;-93
2022/05/30 13:15:01;;;;;;;1.75;1.60;;;19.80;82.30;;;;;;5098837;28;20399;-93
2022/05/30 13:17:56;;;;;;;2.47;1.65;;;18.40;89.50;;;;;;5080595;28;20074;-93
2022/05/30 13:20:28;;;;;;;3.13;1.88;;;17.70;91.20;;;;;;5080668;28;20036;-93
2022/05/30 13:22:58;;;;;;;3.45;2.05;;;17.60;93.00;;;;;;5081170;28;20032;-94
2022/05/30 13:25:30;;;;;;;1.40;1.10;;;18.60;92.30;;;;;;5080733;28;20067;-93
2022/05/30 13:28:06;;;;;;;3.05;1.73;;;20.20;89.80;;;;;;5081179;28;20395;-94
2022/05/30 13:30:34;;;;;;;4.10;1.40;;;21.20;85.80;;;;;;5097168;28;20024;-94
2022/05/30 13:32:59;;;;;;;4.60;1.30;;;21.40;80.90;;;;;;5081133;28;20071;-93
2022/05/30 13:35:31;;;;;;;1.30;1.00;;;21.50;79.70;;;;;;5097669;28;20471;-94
2022/05/30 13:38:04;;;;;;;2.63;1.30;;;21.40;80.40;;;;;;5081018;28;20031;-94
2022/05/30 13:40:32;;;;;;;2.90;1.40;;;20.60;81.90;;;;;;5081206;28;20020;-92
2022/05/30 13:43:04;;;;;;;2.85;1.33;;;19.30;80.50;;;;;;5081241;28;20078;-93
2022/05/30 13:45:41;;;;;;;5.22;1.30;;;18.60;84.00;;;;;;5098682;28;20053;-93
2022/05/30 13:48:15;;;;;;;1.45;1.05;;;18.10;85.10;;;;;;5099049;28;20400;-93
2022/05/30 13:50:54;;;;;;;1.40;1.20;;;18.10;82.20;;;;;;5099027;28;20062;-93
2022/05/30 13:53:27;;;;;;;10.65;5.97;;;18.30;83.30;;;;;;5098069;28;20031;-93
2022/05/30 13:56:01;;;;;;;2.28;1.50;;;18.30;82.60;;;;;;5098082;28;20032;-94
2022/05/30 13:58:34;;;;;;;2.50;1.30;;;18.60;83.80;;;;;;5097671;28;20043;-93